Time;durP1;ratioP1;P1;durP2;ratioP2;P2;SDS_P1;SDS_P2;PMS_P1;PMS_P2;Temp;Humidity;BMP_temperature;BMP_pressure;BME280_temperature;BME280_humidity;BME280_pressure;Samples;Min_cycle;Max_cycle;Signal;HPM_P1;HPM_P2
2022/01/07 00:01:40;;;;;;;2.87;2.50;;;0.20;99.90;;;;;;5103935;28;20208;-86
2022/01/07 00:04:08;;;;;;;3.60;3.23;;;0.20;99.90;;;;;;5105524;28;20250;-86
2022/01/07 00:06:37;;;;;;;5.77;3.23;;;0.30;99.90;;;;;;5099288;28;20254;-86
2022/01/07 00:09:07;;;;;;;3.67;2.83;;;0.20;99.90;;;;;;5101035;28;20227;-86
2022/01/07 00:11:35;;;;;;;2.40;2.20;;;0.20;99.90;;;;;;5103797;27;20251;-85
2022/01/07 00:14:04;;;;;;;3.30;2.90;;;0.20;99.90;;;;;;5097844;27;20204;-86
2022/01/07 00:16:33;;;;;;;2.63;2.43;;;0.20;99.90;;;;;;5099629;27;20252;-86
2022/01/07 00:19:02;;;;;;;2.60;2.40;;;0.20;99.90;;;;;;5119943;27;20200;-85
2022/01/07 00:21:31;;;;;;;2.30;2.10;;;0.10;99.90;;;;;;5125034;27;20196;-85
2022/01/07 00:23:59;;;;;;;2.17;1.93;;;0.10;99.90;;;;;;5116897;27;20196;-86
2022/01/07 00:26:30;;;;;;;3.70;2.70;;;0.10;99.90;;;;;;5134784;27;20207;-86
2022/01/07 00:28:59;;;;;;;5.60;2.53;;;0.10;99.90;;;;;;5116143;28;20203;-85
2022/01/07 00:31:27;;;;;;;2.63;2.43;;;0.10;99.90;;;;;;5128269;27;20195;-84
2022/01/07 00:33:56;;;;;;;2.60;2.40;;;0.00;99.90;;;;;;5137592;27;20219;-85
2022/01/07 00:36:24;;;;;;;2.30;2.10;;;-0.10;99.90;;;;;;5129056;27;20218;-85
2022/01/07 00:38:52;;;;;;;3.73;2.63;;;-0.10;99.90;;;;;;5137052;27;20247;-85
2022/01/07 00:41:21;;;;;;;2.40;2.20;;;-0.10;99.90;;;;;;5137104;27;20294;-85
2022/01/07 00:43:51;;;;;;;3.57;2.70;;;-0.20;99.90;;;;;;5137188;27;20211;-86
2022/01/07 00:46:20;;;;;;;3.50;3.20;;;-0.20;99.90;;;;;;5133629;27;20215;-86
2022/01/07 00:48:49;;;;;;;2.97;2.77;;;-0.10;99.90;;;;;;5113207;28;20203;-85
2022/01/07 00:51:17;;;;;;;3.00;2.80;;;0.00;99.90;;;;;;5095406;28;20212;-86
2022/01/07 00:53:46;;;;;;;4.00;3.20;;;0.00;99.90;;;;;;5101162;28;20286;-86
2022/01/07 00:56:15;;;;;;;4.17;3.53;;;-0.10;99.90;;;;;;5115678;27;20274;-85
2022/01/07 00:58:51;;;;;;;3.90;3.13;;;-0.10;99.90;;;;;;5111783;27;20211;-86
2022/01/07 01:01:20;;;;;;;6.77;2.63;;;-0.20;99.90;;;;;;5097944;28;20254;-86
2022/01/07 01:03:49;;;;;;;2.87;2.67;;;-0.30;99.90;;;;;;5095055;28;20196;-86
2022/01/07 01:06:18;;;;;;;2.93;2.73;;;-0.40;99.90;;;;;;5106761;28;20215;-85
2022/01/07 01:08:47;;;;;;;3.60;3.27;;;-0.40;99.90;;;;;;5115100;28;20200;-86
2022/01/07 01:11:15;;;;;;;2.80;2.60;;;-0.50;99.90;;;;;;5115837;28;20239;-86
2022/01/07 01:13:43;;;;;;;3.43;3.13;;;-0.50;99.90;;;;;;5115414;28;20207;-86
2022/01/07 01:16:13;;;;;;;3.57;2.93;;;-0.50;99.90;;;;;;5115026;28;20243;-86
2022/01/07 01:18:42;;;;;;;3.70;3.40;;;-0.50;99.90;;;;;;5114146;28;20259;-86
2022/01/07 01:21:10;;;;;;;2.70;2.50;;;-0.50;99.90;;;;;;5114824;28;20339;-86
2022/01/07 01:23:40;;;;;;;3.80;3.50;;;-0.50;99.90;;;;;;5113658;28;20238;-86
2022/01/07 01:26:08;;;;;;;3.13;2.93;;;-0.50;99.90;;;;;;5114991;28;20223;-86
2022/01/07 01:28:37;;;;;;;4.93;3.50;;;-0.40;99.90;;;;;;5114385;28;20238;-86
2022/01/07 01:31:05;;;;;;;3.07;2.87;;;-0.40;99.90;;;;;;5114171;28;20211;-86
2022/01/07 01:33:35;;;;;;;3.57;3.23;;;-0.30;99.90;;;;;;5114471;28;20234;-86
2022/01/07 01:36:04;;;;;;;2.93;2.70;;;-0.40;99.90;;;;;;5113169;28;20276;-86
2022/01/07 01:38:32;;;;;;;3.50;3.20;;;-0.40;99.90;;;;;;5114696;28;20311;-86
2022/01/07 01:41:00;;;;;;;3.87;3.47;;;-0.40;99.90;;;;;;5113911;28;20209;-86
2022/01/07 01:43:29;;;;;;;3.27;2.97;;;-0.40;99.90;;;;;;5114287;28;20231;-86
2022/01/07 01:45:57;;;;;;;3.40;3.10;;;-0.50;99.90;;;;;;5114223;28;20303;-86
2022/01/07 01:48:26;;;;;;;3.20;2.93;;;-0.50;99.90;;;;;;5114232;28;20207;-86
2022/01/07 01:50:57;;;;;;;3.90;3.10;;;-0.40;99.90;;;;;;5113681;28;20199;-86
2022/01/07 01:53:27;;;;;;;2.90;2.70;;;-0.40;99.90;;;;;;5114394;28;20410;-86
2022/01/07 01:55:55;;;;;;;5.47;4.03;;;-0.40;99.90;;;;;;5114466;28;20298;-86
2022/01/07 01:58:24;;;;;;;3.40;3.10;;;-0.30;99.90;;;;;;5113718;28;20306;-86
2022/01/07 02:00:52;;;;;;;3.60;3.30;;;-0.30;99.90;;;;;;5113467;28;20223;-86
2022/01/07 02:03:21;;;;;;;3.33;2.93;;;-0.40;99.90;;;;;;5114065;28;20196;-86
2022/01/07 02:05:50;;;;;;;6.30;4.30;;;-0.40;99.90;;;;;;5114092;28;20258;-86
2022/01/07 02:08:20;;;;;;;3.20;3.00;;;-0.40;99.90;;;;;;5113926;28;20203;-86
2022/01/07 02:10:48;;;;;;;5.10;3.37;;;-0.40;99.90;;;;;;5113140;28;20243;-86
2022/01/07 02:13:17;;;;;;;2.60;2.43;;;-0.40;99.90;;;;;;5113639;28;20212;-86
2022/01/07 02:15:45;;;;;;;2.77;2.57;;;-0.40;99.90;;;;;;5113815;28;20223;-86
2022/01/07 02:18:16;;;;;;;3.53;3.23;;;-0.40;99.90;;;;;;5113636;28;20227;-86
2022/01/07 02:20:47;;;;;;;4.57;3.40;;;-0.40;99.90;;;;;;5113556;28;20200;-86
2022/01/07 02:23:17;;;;;;;2.83;2.63;;;-0.40;99.90;;;;;;5113986;28;20229;-86
2022/01/07 02:25:46;;;;;;;2.90;2.60;;;-0.50;99.90;;;;;;5113020;28;20363;-86
2022/01/07 02:28:15;;;;;;;4.60;2.50;;;-0.40;99.90;;;;;;5113976;28;20196;-86
2022/01/07 02:30:43;;;;;;;3.10;2.80;;;-0.50;99.90;;;;;;5112928;28;20300;-86
2022/01/07 02:33:12;;;;;;;2.60;2.40;;;-0.50;99.90;;;;;;5113635;28;20283;-86
2022/01/07 02:35:46;;;;;;;3.27;2.73;;;-0.50;99.90;;;;;;5113531;28;20265;-86
2022/01/07 02:38:17;;;;;;;2.77;2.47;;;-0.50;99.90;;;;;;5113111;28;20227;-86
2022/01/07 02:40:46;;;;;;;2.30;2.10;;;-0.50;99.90;;;;;;5126556;28;20269;-85
2022/01/07 02:43:15;;;;;;;3.30;2.90;;;-0.50;99.90;;;;;;5135176;28;20203;-86
2022/01/07 02:45:43;;;;;;;3.30;3.00;;;-0.50;99.90;;;;;;5132557;28;20216;-86
2022/01/07 02:48:12;;;;;;;2.67;2.47;;;-0.50;99.90;;;;;;5113599;28;20192;-86
2022/01/07 02:50:40;;;;;;;2.20;2.00;;;-0.50;99.90;;;;;;5113191;28;20199;-86
2022/01/07 02:53:11;;;;;;;4.50;2.13;;;-0.50;99.90;;;;;;5113376;28;20299;-86
2022/01/07 02:55:44;;;;;;;3.40;2.90;;;-0.60;99.90;;;;;;5113019;28;20231;-86
2022/01/07 02:58:12;;;;;;;2.83;2.60;;;-0.60;99.90;;;;;;5113136;28;20235;-86
2022/01/07 03:00:41;;;;;;;3.73;2.87;;;-0.60;99.90;;;;;;5113226;28;20203;-86
2022/01/07 03:03:09;;;;;;;2.80;2.47;;;-0.70;99.90;;;;;;5112791;28;20208;-86
2022/01/07 03:05:41;;;;;;;2.30;2.20;;;-0.70;99.90;;;;;;5113312;28;20269;-86
2022/01/07 03:08:10;;;;;;;2.47;2.20;;;-0.80;99.90;;;;;;5113348;28;20200;-86
2022/01/07 03:10:40;;;;;;;2.97;2.57;;;-0.90;99.90;;;;;;5112584;28;20218;-86
2022/01/07 03:13:09;;;;;;;1.80;1.70;;;-0.90;99.90;;;;;;5113335;28;20227;-86
2022/01/07 03:15:38;;;;;;;2.73;2.53;;;-0.90;99.90;;;;;;5112719;28;20297;-86
2022/01/07 03:18:08;;;;;;;2.47;2.27;;;-0.90;99.90;;;;;;5112934;28;20310;-86
2022/01/07 03:20:39;;;;;;;2.60;2.37;;;-0.90;99.90;;;;;;5112335;28;20199;-86
2022/01/07 03:23:09;;;;;;;2.50;2.30;;;-0.90;99.90;;;;;;5112775;28;20196;-86
2022/01/07 03:25:38;;;;;;;2.10;1.97;;;-1.00;99.90;;;;;;5111966;28;20219;-86
2022/01/07 03:28:10;;;;;;;3.00;2.63;;;-1.00;99.90;;;;;;5112818;28;20268;-86
2022/01/07 03:30:39;;;;;;;3.13;2.90;;;-1.00;99.90;;;;;;5112381;28;20246;-86
2022/01/07 03:33:08;;;;;;;2.30;2.10;;;-1.00;99.90;;;;;;5112932;28;20212;-86
2022/01/07 03:35:37;;;;;;;2.67;2.47;;;-0.90;99.90;;;;;;5112511;28;20310;-86
2022/01/07 03:38:06;;;;;;;2.73;2.53;;;-1.00;99.90;;;;;;5112819;28;20219;-86
2022/01/07 03:40:35;;;;;;;2.90;2.63;;;-1.00;99.90;;;;;;5112057;28;20231;-86
2022/01/07 03:43:04;;;;;;;2.97;2.67;;;-1.00;99.90;;;;;;5112753;28;20203;-86
2022/01/07 03:45:34;;;;;;;2.60;2.37;;;-1.00;99.90;;;;;;5112723;28;20255;-86
2022/01/07 03:48:05;;;;;;;3.33;2.37;;;-1.00;99.90;;;;;;5112978;28;20192;-86
2022/01/07 03:50:35;;;;;;;2.90;2.70;;;-1.00;99.90;;;;;;5115426;28;20215;-86
2022/01/07 03:53:03;;;;;;;2.67;2.47;;;-1.10;99.90;;;;;;5113031;28;20256;-86
2022/01/07 03:55:32;;;;;;;3.87;2.93;;;-1.10;99.90;;;;;;5112782;28;20223;-86
2022/01/07 03:58:01;;;;;;;2.77;2.57;;;-1.00;99.90;;;;;;5112778;28;20220;-86
2022/01/07 04:00:33;;;;;;;2.83;2.63;;;-1.10;99.90;;;;;;5116231;28;20203;-86
2022/01/07 04:03:06;;;;;;;2.57;2.37;;;-1.10;99.90;;;;;;5116361;28;20237;-86
2022/01/07 04:05:34;;;;;;;2.53;2.33;;;-1.10;99.90;;;;;;5116454;28;20216;-86
2022/01/07 04:08:04;;;;;;;5.43;2.53;;;-1.10;99.90;;;;;;5116658;28;20204;-86
2022/01/07 04:10:33;;;;;;;14.77;2.90;;;-1.10;99.90;;;;;;5115764;28;20276;-86
2022/01/07 04:13:02;;;;;;;2.97;2.67;;;-1.10;99.90;;;;;;5116234;28;20200;-86
2022/01/07 04:15:31;;;;;;;4.13;2.70;;;-1.20;99.90;;;;;;5115971;28;20219;-86
2022/01/07 04:17:59;;;;;;;4.03;2.93;;;-1.20;99.90;;;;;;5115886;28;20220;-86
2022/01/07 04:20:32;;;;;;;3.30;3.00;;;-1.30;99.90;;;;;;5115800;28;20235;-86
2022/01/07 04:23:01;;;;;;;2.60;2.40;;;-1.30;99.90;;;;;;5116192;28;20238;-86
2022/01/07 04:25:30;;;;;;;3.10;2.80;;;-1.40;99.90;;;;;;5116085;28;20220;-86
2022/01/07 04:28:01;;;;;;;4.30;2.43;;;-1.40;99.90;;;;;;5115912;28;20234;-86
2022/01/07 04:30:32;;;;;;;4.97;3.27;;;-1.40;99.90;;;;;;5114991;28;20208;-86
2022/01/07 04:33:01;;;;;;;2.90;2.70;;;-1.40;99.90;;;;;;5116111;28;20202;-85
2022/01/07 04:35:33;;;;;;;2.63;2.43;;;-1.50;99.90;;;;;;5115678;28;20273;-86
2022/01/07 04:38:02;;;;;;;2.90;2.70;;;-1.50;99.90;;;;;;5115656;28;20251;-86
2022/01/07 04:40:31;;;;;;;2.97;2.67;;;-1.50;99.90;;;;;;5115225;28;20204;-86
2022/01/07 04:43:00;;;;;;;2.93;2.63;;;-1.40;99.90;;;;;;5115492;28;20211;-86
2022/01/07 04:45:29;;;;;;;2.73;2.50;;;-1.40;99.90;;;;;;5115840;28;20232;-86
2022/01/07 04:47:57;;;;;;;2.50;2.30;;;-1.40;99.90;;;;;;5115837;28;20200;-86
2022/01/07 04:50:26;;;;;;;2.70;2.50;;;-1.40;99.90;;;;;;5115827;28;20230;-86
2022/01/07 04:52:56;;;;;;;3.37;2.87;;;-1.40;99.90;;;;;;5120038;28;20208;-86
2022/01/07 04:55:29;;;;;;;2.63;2.43;;;-1.30;99.90;;;;;;5135869;28;20292;-85
2022/01/07 04:57:58;;;;;;;2.30;2.10;;;-1.40;99.90;;;;;;5129700;28;20204;-86
2022/01/07 05:00:26;;;;;;;3.33;3.03;;;-1.40;99.90;;;;;;5116791;28;20278;-86
2022/01/07 05:02:54;;;;;;;2.77;2.50;;;-1.40;99.90;;;;;;5115758;28;20208;-86
2022/01/07 05:05:23;;;;;;;3.40;2.53;;;-1.40;99.90;;;;;;5115214;28;20200;-86
2022/01/07 05:07:51;;;;;;;3.03;2.73;;;-1.40;99.90;;;;;;5115284;28;20332;-86
2022/01/07 05:10:23;;;;;;;2.80;2.60;;;-1.40;99.90;;;;;;5113773;28;20264;-86
2022/01/07 05:12:51;;;;;;;2.50;2.30;;;-1.40;99.90;;;;;;5115143;28;20231;-86
2022/01/07 05:15:22;;;;;;;3.97;2.90;;;-1.40;99.90;;;;;;5115072;28;20260;-86
2022/01/07 05:17:52;;;;;;;3.03;2.80;;;-1.40;99.90;;;;;;5115244;28;20203;-86
2022/01/07 05:20:21;;;;;;;2.80;2.60;;;-1.40;99.90;;;;;;5114619;28;20206;-87
2022/01/07 05:22:49;;;;;;;3.53;3.23;;;-1.40;99.90;;;;;;5114567;28;20242;-86
2022/01/07 05:25:18;;;;;;;4.23;3.60;;;-1.50;99.90;;;;;;5113879;28;20207;-86
2022/01/07 05:27:48;;;;;;;3.40;3.10;;;-1.40;99.90;;;;;;5114780;28;20218;-86
2022/01/07 05:30:16;;;;;;;3.03;2.70;;;-1.50;99.90;;;;;;5114484;28;20246;-87
2022/01/07 05:32:44;;;;;;;3.27;2.97;;;-1.50;99.90;;;;;;5114790;28;20196;-86
2022/01/07 05:35:13;;;;;;;2.63;2.43;;;-1.60;99.90;;;;;;5114580;28;20299;-86
2022/01/07 05:37:41;;;;;;;3.03;2.73;;;-1.60;99.90;;;;;;5114426;28;20204;-86
2022/01/07 05:40:11;;;;;;;3.07;2.43;;;-1.70;99.90;;;;;;5113577;28;20302;-87
2022/01/07 05:42:39;;;;;;;4.80;3.50;;;-1.80;99.90;;;;;;5114416;28;20203;-86
2022/01/07 05:45:10;;;;;;;2.37;2.10;;;-1.80;99.90;;;;;;5114072;28;20204;-87
2022/01/07 05:47:38;;;;;;;2.87;2.63;;;-1.80;99.90;;;;;;5114230;28;20219;-86
2022/01/07 05:50:07;;;;;;;2.37;2.17;;;-1.80;99.90;;;;;;5113900;28;20239;-86
2022/01/07 05:52:36;;;;;;;2.70;2.50;;;-1.80;99.90;;;;;;5114392;28;20203;-86
2022/01/07 05:55:05;;;;;;;3.17;2.80;;;-1.80;99.90;;;;;;5114117;28;20200;-86
2022/01/07 05:57:35;;;;;;;2.87;2.53;;;-1.80;99.90;;;;;;5114193;28;20208;-86
2022/01/07 06:00:06;;;;;;;2.80;2.60;;;-1.80;99.90;;;;;;5113692;28;20389;-86
2022/01/07 06:02:36;;;;;;;3.50;2.50;;;-1.80;99.90;;;;;;5114079;28;20286;-86
2022/01/07 06:05:05;;;;;;;3.67;3.07;;;-1.80;99.90;;;;;;5113889;28;20204;-86
2022/01/07 06:07:33;;;;;;;2.87;2.67;;;-1.80;99.90;;;;;;5113840;28;20226;-86
2022/01/07 06:10:02;;;;;;;3.10;2.80;;;-1.80;99.90;;;;;;5113805;28;20291;-86
2022/01/07 06:12:30;;;;;;;3.03;2.73;;;-1.80;99.90;;;;;;5113754;28;20290;-86
2022/01/07 06:14:59;;;;;;;3.47;3.03;;;-1.80;99.90;;;;;;5113859;28;20207;-86
2022/01/07 06:17:28;;;;;;;3.70;2.90;;;-1.80;99.90;;;;;;5113576;28;20250;-86
2022/01/07 06:19:58;;;;;;;3.93;2.90;;;-1.70;99.90;;;;;;5113558;28;20244;-86
2022/01/07 06:22:26;;;;;;;3.23;2.93;;;-1.70;99.90;;;;;;5113545;28;20225;-86
2022/01/07 06:24:55;;;;;;;3.13;2.77;;;-1.70;99.90;;;;;;5112602;28;20345;-87
2022/01/07 06:27:23;;;;;;;2.50;2.30;;;-1.70;99.90;;;;;;5113328;28;20231;-86
2022/01/07 06:29:51;;;;;;;6.10;2.97;;;-1.70;99.90;;;;;;5113502;28;20212;-86
2022/01/07 06:32:20;;;;;;;2.23;2.13;;;-1.70;99.90;;;;;;5115024;28;20196;-86
2022/01/07 06:34:48;;;;;;;3.23;2.73;;;-1.70;99.90;;;;;;5114117;28;20222;-86
2022/01/07 06:37:19;;;;;;;3.13;2.50;;;-1.70;99.90;;;;;;5113607;28;20223;-86
2022/01/07 06:39:47;;;;;;;2.87;2.67;;;-1.70;99.90;;;;;;5112893;28;20231;-86
2022/01/07 06:42:16;;;;;;;3.90;2.27;;;-1.70;99.90;;;;;;5113127;28;20235;-86
2022/01/07 06:44:44;;;;;;;3.77;3.40;;;-1.70;99.90;;;;;;5113739;28;20199;-86
2022/01/07 06:47:13;;;;;;;3.00;2.80;;;-1.70;99.90;;;;;;5113353;28;20216;-86
2022/01/07 06:49:42;;;;;;;3.50;3.13;;;-1.70;99.90;;;;;;5112749;28;20200;-86
2022/01/07 06:52:10;;;;;;;5.43;4.10;;;-1.80;99.90;;;;;;5113274;28;20286;-86
2022/01/07 06:54:41;;;;;;;4.07;3.13;;;-1.70;99.90;;;;;;5113493;28;20230;-86
2022/01/07 06:57:09;;;;;;;3.67;3.37;;;-1.80;99.90;;;;;;5113104;28;20224;-88
2022/01/07 06:59:38;;;;;;;4.73;3.10;;;-1.80;99.90;;;;;;5113045;28;20249;-86
2022/01/07 07:02:08;;;;;;;2.53;2.33;;;-1.80;99.90;;;;;;5114585;28;20196;-86
2022/01/07 07:04:36;;;;;;;3.57;3.03;;;-1.80;99.90;;;;;;5130742;22;20214;-83
2022/01/07 07:07:05;;;;;;;5.87;3.10;;;-1.80;99.90;;;;;;5052335;28;20205;-83
2022/01/07 07:09:34;;;;;;;6.00;3.67;;;-1.80;99.90;;;;;;5052111;28;20198;-83
2022/01/07 07:12:06;;;;;;;3.33;2.60;;;-1.80;99.90;;;;;;5052087;28;20231;-83
2022/01/07 07:14:35;;;;;;;6.67;4.00;;;-1.80;99.90;;;;;;5052051;28;20230;-83
2022/01/07 07:17:04;;;;;;;2.93;2.73;;;-1.80;99.90;;;;;;5052299;28;20264;-83
2022/01/07 07:19:33;;;;;;;4.33;3.13;;;-1.70;99.90;;;;;;5042442;28;20214;-83
2022/01/07 07:22:01;;;;;;;2.83;2.53;;;-1.70;99.90;;;;;;5040142;28;20215;-83
2022/01/07 07:24:30;;;;;;;3.97;2.23;;;-1.70;99.90;;;;;;5045443;28;20317;-83
2022/01/07 07:26:58;;;;;;;3.97;2.97;;;-1.70;99.90;;;;;;5051706;28;20198;-83
2022/01/07 07:29:28;;;;;;;4.23;2.70;;;-1.70;99.90;;;;;;5049089;28;20218;-84
2022/01/07 07:31:58;;;;;;;2.20;2.00;;;-1.60;99.90;;;;;;5040222;28;20203;-83
2022/01/07 07:34:57;;;;;;;4.33;3.10;;;-1.50;99.90;;;;;;5045216;28;20230;-84
2022/01/07 07:37:26;;;;;;;2.80;2.20;;;-1.50;99.90;;;;;;5037802;28;20215;-83
2022/01/07 07:39:54;;;;;;;3.33;2.67;;;-1.50;99.90;;;;;;5044066;28;20240;-83
2022/01/07 07:42:23;;;;;;;2.37;2.17;;;-1.50;99.90;;;;;;5041386;28;20205;-84
2022/01/07 07:44:53;;;;;;;5.10;1.80;;;-1.40;99.90;;;;;;5043897;28;20238;-83
2022/01/07 07:47:21;;;;;;;2.50;2.00;;;-1.40;99.90;;;;;;5047754;28;20197;-83
2022/01/07 07:49:50;;;;;;;3.63;1.93;;;-1.40;99.90;;;;;;5044082;28;20260;-83
2022/01/07 07:52:18;;;;;;;2.50;2.10;;;-1.40;99.90;;;;;;5050739;28;20204;-84
2022/01/07 07:54:47;;;;;;;2.30;2.10;;;-1.30;99.90;;;;;;5055133;28;20271;-83
2022/01/07 07:57:15;;;;;;;3.60;2.03;;;-1.20;99.90;;;;;;5044761;28;20297;-83
2022/01/07 07:59:44;;;;;;;2.17;1.93;;;-1.10;99.90;;;;;;5041256;28;20248;-86
2022/01/07 08:02:14;;;;;;;2.40;2.20;;;-1.10;99.90;;;;;;5042622;28;20202;-82
2022/01/07 08:04:43;;;;;;;1.90;1.80;;;-1.10;99.90;;;;;;5055763;28;20237;-82
2022/01/07 08:07:16;;;;;;;1.60;1.50;;;-1.10;99.90;;;;;;5055584;28;20293;-82
2022/01/07 08:09:45;;;;;;;2.00;1.60;;;-1.10;99.90;;;;;;5055183;28;20220;-82
2022/01/07 08:12:20;;;;;;;1.67;1.57;;;-1.00;99.90;;;;;;5052717;28;20206;-83
2022/01/07 08:17:36;;;;;;;2.73;1.87;;;-1.00;99.90;;;;;;5056255;28;20292;-83
2022/01/07 08:20:06;;;;;;;2.17;1.97;;;-0.90;99.90;;;;;;5055596;28;20304;-83
2022/01/07 08:22:35;;;;;;;2.63;2.37;;;-0.90;99.90;;;;;;5042096;28;20217;-83
2022/01/07 08:25:05;;;;;;;3.37;1.80;;;-0.90;99.90;;;;;;5051519;28;20252;-86
2022/01/07 08:27:33;;;;;;;5.23;1.60;;;-0.90;99.90;;;;;;5041542;28;20207;-83
2022/01/07 08:30:12;;;;;;;1.70;1.60;;;-0.80;99.90;;;;;;5040670;28;20194;-86
2022/01/07 08:35:30;;;;;;;1.70;1.60;;;-0.70;99.90;;;;;;5054332;28;20229;-83
2022/01/07 08:37:58;;;;;;;1.70;1.60;;;-0.70;99.90;;;;;;5054426;28;20277;-83
2022/01/07 08:40:27;;;;;;;1.83;1.63;;;-0.70;99.90;;;;;;5047411;28;20250;-83
2022/01/07 08:42:55;;;;;;;2.30;1.90;;;-0.70;99.90;;;;;;5041986;28;20226;-83
2022/01/07 08:45:25;;;;;;;1.97;1.87;;;-0.70;99.90;;;;;;5054011;28;20279;-83
2022/01/07 08:47:55;;;;;;;1.30;1.20;;;-0.60;99.90;;;;;;5055654;28;20198;-83
2022/01/07 08:50:24;;;;;;;2.13;1.70;;;-0.60;99.90;;;;;;5058869;28;20221;-83
2022/01/07 08:52:55;;;;;;;2.27;1.57;;;-0.50;99.90;;;;;;5069426;28;20247;-84
2022/01/07 08:55:23;;;;;;;2.00;1.63;;;-0.50;99.90;;;;;;5071810;28;20249;-83
2022/01/07 08:57:52;;;;;;;1.80;1.60;;;-0.40;99.90;;;;;;5064937;28;20212;-83
2022/01/07 09:00:20;;;;;;;1.80;1.70;;;-0.40;99.90;;;;;;5062928;28;20245;-85
2022/01/07 09:02:49;;;;;;;1.83;1.63;;;-0.40;99.90;;;;;;5054982;28;20201;-85
2022/01/07 09:05:18;;;;;;;1.70;1.60;;;-0.40;99.90;;;;;;5054518;28;20222;-85
2022/01/07 09:07:47;;;;;;;1.90;1.70;;;-0.40;99.90;;;;;;5055286;28;20209;-85
2022/01/07 09:10:15;;;;;;;2.07;1.87;;;-0.30;99.90;;;;;;5049951;28;20225;-85
2022/01/07 09:12:44;;;;;;;2.60;1.70;;;-0.30;99.90;;;;;;5054614;28;20230;-85
2022/01/07 09:15:13;;;;;;;2.03;1.50;;;-0.20;99.90;;;;;;5046811;28;20223;-85
2022/01/07 09:17:42;;;;;;;1.60;1.50;;;-0.20;99.90;;;;;;5050689;28;20222;-85
2022/01/07 09:20:12;;;;;;;1.50;1.40;;;-0.20;99.90;;;;;;5054061;28;20218;-85
2022/01/07 09:22:42;;;;;;;1.73;1.40;;;-0.10;99.90;;;;;;5041028;28;20290;-85
2022/01/07 09:25:11;;;;;;;2.53;1.57;;;-0.10;99.90;;;;;;5042547;28;20256;-83
2022/01/07 09:27:41;;;;;;;1.83;1.40;;;0.00;99.90;;;;;;5047582;28;20223;-83
2022/01/07 09:30:11;;;;;;;2.60;1.40;;;0.10;99.90;;;;;;5044922;28;20260;-84
2022/01/07 09:32:40;;;;;;;2.20;1.63;;;0.20;99.90;;;;;;5054634;28;20240;-84
2022/01/07 09:35:11;;;;;;;1.13;1.03;;;0.20;99.90;;;;;;5050782;28;20221;-84
2022/01/07 09:37:41;;;;;;;1.77;1.67;;;0.30;99.90;;;;;;5045591;28;20194;-83
2022/01/07 09:40:10;;;;;;;1.63;1.53;;;0.30;99.90;;;;;;5042865;28;20257;-82
2022/01/07 09:42:39;;;;;;;1.60;1.50;;;0.30;99.90;;;;;;5054220;28;20221;-85
2022/01/07 09:45:07;;;;;;;2.20;1.97;;;0.40;99.90;;;;;;5054083;28;20241;-84
2022/01/07 09:47:36;;;;;;;2.43;1.63;;;0.50;99.90;;;;;;5053034;28;20206;-83
2022/01/07 09:50:10;;;;;;;3.50;1.83;;;0.50;99.90;;;;;;5052495;28;20198;-83
2022/01/07 09:52:41;;;;;;;1.83;1.73;;;0.60;99.90;;;;;;5053643;28;20202;-84
2022/01/07 09:55:10;;;;;;;1.73;1.63;;;0.60;99.90;;;;;;5053134;28;20229;-83
2022/01/07 09:57:39;;;;;;;2.50;1.80;;;0.60;99.90;;;;;;5053313;28;20293;-84
2022/01/07 10:00:09;;;;;;;1.60;1.50;;;0.60;99.90;;;;;;5053129;28;20194;-83
2022/01/07 10:02:38;;;;;;;1.83;1.67;;;0.70;99.90;;;;;;5053384;28;20271;-83
2022/01/07 10:05:16;;;;;;;1.77;1.60;;;0.70;99.90;;;;;;5052783;28;20269;-84
2022/01/07 10:07:46;;;;;;;2.93;2.27;;;0.90;99.90;;;;;;5052675;28;20206;-84
2022/01/07 10:10:18;;;;;;;1.60;1.50;;;1.00;99.90;;;;;;5052655;28;20297;-83
2022/01/07 10:12:53;;;;;;;1.43;1.33;;;1.10;99.90;;;;;;5052837;28;20216;-83
2022/01/07 10:15:23;;;;;;;2.03;1.70;;;1.20;99.90;;;;;;5052969;28;20248;-83
2022/01/07 10:17:57;;;;;;;2.00;1.73;;;1.20;99.90;;;;;;5052569;28;20296;-83
2022/01/07 10:20:26;;;;;;;1.83;1.73;;;1.30;99.90;;;;;;5052671;28;20233;-83
2022/01/07 10:22:57;;;;;;;3.13;2.20;;;1.50;99.90;;;;;;5052457;28;20225;-83
2022/01/07 10:25:28;;;;;;;1.80;1.70;;;1.60;99.90;;;;;;5052978;28;20308;-83
2022/01/07 10:28:03;;;;;;;2.83;2.17;;;1.70;99.90;;;;;;5052948;28;20276;-83
2022/01/07 10:30:37;;;;;;;1.90;1.80;;;1.90;99.90;;;;;;5052026;28;20227;-83
2022/01/07 10:33:18;;;;;;;2.80;2.50;;;2.30;99.90;;;;;;5052425;28;20227;-83
2022/01/07 10:35:48;;;;;;;3.60;2.73;;;2.80;99.90;;;;;;5052458;28;20251;-83
2022/01/07 10:38:20;;;;;;;2.17;1.90;;;3.20;99.90;;;;;;5052836;28;20287;-83
2022/01/07 10:40:50;;;;;;;2.35;2.15;;;3.70;99.90;;;;;;5052219;28;20197;-83
2022/01/07 10:43:20;;;;;;;2.45;2.25;;;4.20;99.90;;;;;;5052275;28;20278;-83
2022/01/07 10:45:51;;;;;;;1.65;1.55;;;4.70;99.90;;;;;;5052216;28;20229;-83
2022/01/07 10:48:21;;;;;;;2.35;2.15;;;4.80;99.90;;;;;;5052165;28;20205;-83
2022/01/07 10:50:52;;;;;;;3.05;2.35;;;5.30;99.90;;;;;;5052285;28;20259;-83
2022/01/07 10:53:24;;;;;;;2.47;1.90;;;5.60;99.90;;;;;;5052770;28;20201;-83
2022/01/07 10:56:15;;;;;;;3.38;1.63;;;5.90;99.90;;;;;;5051931;28;20256;-83
2022/01/07 10:58:52;;;;;;;5.70;1.50;;;6.40;99.60;;;;;;5051828;28;20292;-83
2022/01/07 11:01:28;;;;;;;1.80;1.67;;;6.50;98.70;;;;;;5052143;28;20213;-84
2022/01/07 11:03:58;;;;;;;1.17;1.10;;;6.40;97.80;;;;;;5052326;28;20224;-84
2022/01/07 11:06:28;;;;;;;1.55;1.45;;;6.50;97.10;;;;;;5052344;28;20241;-83
2022/01/07 11:08:59;;;;;;;1.48;1.38;;;6.40;96.80;;;;;;5050865;28;20237;-83
2022/01/07 11:11:31;;;;;;;1.48;1.23;;;6.70;96.60;;;;;;5051666;28;20202;-84
2022/01/07 11:14:06;;;;;;;4.47;1.73;;;6.90;96.10;;;;;;5052442;28;20201;-83
2022/01/07 11:16:38;;;;;;;1.80;1.50;;;7.10;95.90;;;;;;5052120;28;20255;-83
2022/01/07 11:19:09;;;;;;;1.52;1.42;;;7.10;95.40;;;;;;5051857;28;20213;-83
2022/01/07 11:21:38;;;;;;;2.10;1.88;;;6.80;95.90;;;;;;5051857;28;20388;-84
2022/01/07 11:24:37;;;;;;;2.20;1.73;;;6.80;96.40;;;;;;5052030;28;20285;-84
2022/01/07 11:27:08;;;;;;;1.45;1.35;;;7.30;95.70;;;;;;5052167;28;20233;-84
2022/01/07 11:29:38;;;;;;;1.50;1.40;;;7.60;95.00;;;;;;5051890;28;20217;-84
2022/01/07 11:32:29;;;;;;;1.65;1.27;;;7.60;94.80;;;;;;5052143;28;20198;-84
2022/01/07 11:35:21;;;;;;;4.32;2.20;;;7.80;94.80;;;;;;5052158;28;20222;-84
2022/01/07 11:37:51;;;;;;;1.73;1.63;;;7.80;94.40;;;;;;5051988;28;20225;-84
2022/01/07 11:40:46;;;;;;;7.75;1.95;;;7.80;94.80;;;;;;5051222;28;20296;-84
2022/01/07 11:43:32;;;;;;;1.85;1.60;;;8.10;93.80;;;;;;5052169;28;20256;-84
2022/01/07 11:46:01;;;;;;;1.70;1.60;;;8.10;93.00;;;;;;5052419;28;20229;-84
2022/01/07 11:48:39;;;;;;;2.22;1.90;;;8.60;92.40;;;;;;5051708;28;20293;-84
2022/01/07 11:51:13;;;;;;;1.80;1.70;;;8.60;92.00;;;;;;5051782;28;20229;-85
2022/01/07 11:54:05;;;;;;;2.72;1.85;;;8.70;90.60;;;;;;5051813;28;20292;-85
2022/01/07 11:56:36;;;;;;;2.67;2.10;;;8.40;90.90;;;;;;5052075;28;20241;-85
2022/01/07 11:59:23;;;;;;;3.22;2.00;;;8.40;90.30;;;;;;5051906;28;20236;-85
2022/01/07 12:02:04;;;;;;;1.55;1.40;;;8.10;90.60;;;;;;5051713;28;20241;-85
2022/01/07 12:04:35;;;;;;;2.03;1.65;;;8.10;90.20;;;;;;5051678;28;20225;-85
2022/01/07 12:07:05;;;;;;;2.08;1.88;;;8.20;89.60;;;;;;5051904;28;20203;-84
2022/01/07 12:09:38;;;;;;;2.53;1.70;;;8.10;90.20;;;;;;5051106;28;20210;-84
2022/01/07 12:12:15;;;;;;;7.28;1.77;;;8.30;89.40;;;;;;5052002;28;20228;-84
2022/01/07 12:14:50;;;;;;;2.45;1.80;;;8.90;88.60;;;;;;5051171;28;20233;-84
2022/01/07 12:17:20;;;;;;;2.88;1.73;;;9.00;86.50;;;;;;5051766;28;20205;-83
2022/01/07 12:20:21;;;;;;;2.00;1.88;;;9.20;84.90;;;;;;5053053;28;20206;-85
2022/01/07 12:22:51;;;;;;;1.88;1.73;;;9.20;86.50;;;;;;5055086;28;20304;-85
2022/01/07 12:25:20;;;;;;;4.18;2.28;;;9.00;85.00;;;;;;5055231;28;20313;-85
2022/01/07 12:28:02;;;;;;;2.38;1.95;;;8.80;84.30;;;;;;5055194;28;20229;-85
2022/01/07 12:30:31;;;;;;;5.07;2.45;;;8.50;85.50;;;;;;5054340;28;20269;-85
2022/01/07 12:33:07;;;;;;;2.50;2.30;;;8.40;86.70;;;;;;5055004;28;20202;-85
2022/01/07 12:35:36;;;;;;;3.80;3.05;;;8.60;86.80;;;;;;5055168;28;20279;-85
2022/01/07 12:38:11;;;;;;;2.70;2.35;;;8.70;88.00;;;;;;5055075;28;20241;-85
2022/01/07 12:40:40;;;;;;;3.00;2.28;;;8.60;87.20;;;;;;5054380;28;20248;-84
2022/01/07 12:43:10;;;;;;;2.10;2.00;;;8.60;86.30;;;;;;5054737;28;20275;-85
2022/01/07 12:45:38;;;;;;;3.10;2.78;;;8.50;86.70;;;;;;5054738;28;20256;-85
2022/01/07 12:48:07;;;;;;;3.42;2.25;;;8.60;86.90;;;;;;5054155;28;20221;-85
2022/01/07 12:50:38;;;;;;;2.20;2.00;;;8.90;85.70;;;;;;5053896;28;20213;-85
2022/01/07 12:53:07;;;;;;;2.03;1.80;;;8.60;85.40;;;;;;5055339;28;20201;-84
2022/01/07 12:55:35;;;;;;;1.95;1.58;;;8.70;86.10;;;;;;5054597;28;20307;-85
2022/01/07 12:58:06;;;;;;;2.55;1.70;;;8.60;85.70;;;;;;5054520;28;20220;-84
2022/01/07 13:00:37;;;;;;;2.67;1.92;;;8.50;85.90;;;;;;5053852;28;20276;-85
2022/01/07 13:03:08;;;;;;;2.60;2.28;;;8.60;87.40;;;;;;5054334;28;20232;-85
2022/01/07 13:05:37;;;;;;;1.65;1.55;;;8.90;85.70;;;;;;5054553;28;20229;-83
2022/01/07 13:08:10;;;;;;;2.10;1.88;;;9.00;85.10;;;;;;5054429;28;20210;-85
2022/01/07 13:10:39;;;;;;;2.13;1.95;;;9.30;83.70;;;;;;5053713;28;20245;-85
2022/01/07 13:13:10;;;;;;;2.70;2.25;;;9.60;83.00;;;;;;5054274;28;20271;-85